createdAt,value
2023-03-13T00:00:17.901Z,83.96
2023-03-13T00:01:07.909Z,83.65
2023-03-13T00:01:57.894Z,83.72
2023-03-13T00:02:47.849Z,83.41
2023-03-13T00:03:37.845Z,83.41
2023-03-13T00:04:27.834Z,83.20
2023-03-13T00:05:18.082Z,83.20
2023-03-13T00:06:07.816Z,84.03
2023-03-13T00:06:57.806Z,85.15
2023-03-13T00:07:47.806Z,85.15
2023-03-13T00:08:37.866Z,85.36
2023-03-13T00:09:27.766Z,85.46
2023-03-13T00:10:17.806Z,85.71
2023-03-13T00:11:07.766Z,85.71
2023-03-13T00:11:57.927Z,85.71
2023-03-13T00:12:47.764Z,85.91
2023-03-13T00:13:37.727Z,85.74
2023-03-13T00:14:27.794Z,86.46
2023-03-13T00:15:17.721Z,86.77
2023-03-13T00:16:07.739Z,86.77
2023-03-13T00:16:57.728Z,86.77
2023-03-13T00:17:47.734Z,86.25
2023-03-13T00:18:37.809Z,85.95
2023-03-13T00:19:27.783Z,86.25
2023-03-13T00:20:17.674Z,85.19
2023-03-13T00:21:07.645Z,84.99
2023-03-13T00:21:57.623Z,85.60
2023-03-13T00:22:47.623Z,85.30
2023-03-13T00:23:37.887Z,85.71
2023-03-13T00:24:27.616Z,84.95
2023-03-13T00:25:17.616Z,84.64
2023-03-13T00:26:07.621Z,84.53
2023-03-13T00:26:57.581Z,84.23
2023-03-13T00:27:47.584Z,83.68
2023-03-13T00:28:37.558Z,83.78
2023-03-13T00:29:27.553Z,83.98
2023-03-13T00:30:17.555Z,84.39
2023-03-13T00:31:07.626Z,85.15
2023-03-13T00:31:57.663Z,85.56
2023-03-13T00:32:47.720Z,86.28
2023-03-13T00:33:37.521Z,86.73
2023-03-13T00:34:27.513Z,86.32
2023-03-13T00:35:17.527Z,86.22
2023-03-13T00:36:08.204Z,86.83
2023-03-13T00:36:57.461Z,87.24
2023-03-13T00:37:47.450Z,87.45
2023-03-13T00:38:37.852Z,86.73
2023-03-13T00:39:27.456Z,86.42
2023-03-13T00:40:17.431Z,86.22
2023-03-13T00:41:07.419Z,86.93
2023-03-13T00:41:57.418Z,87.65
2023-03-13T00:42:47.416Z,87.85
2023-03-13T00:43:37.396Z,87.90
2023-03-13T00:44:27.380Z,87.70
2023-03-13T00:45:17.384Z,87.59
2023-03-13T00:46:07.456Z,89.03
2023-03-13T00:46:57.404Z,89.13
2023-03-13T00:47:47.369Z,89.54
2023-03-13T00:48:37.342Z,89.84
2023-03-13T00:49:27.336Z,90.61
2023-03-13T00:50:17.338Z,90.91
2023-03-13T00:51:07.331Z,90.81
2023-03-13T00:51:57.305Z,90.50
2023-03-13T00:52:47.296Z,90.09
2023-03-13T00:53:37.293Z,89.78
2023-03-13T00:54:27.275Z,89.89
2023-03-13T00:55:17.276Z,90.09
2023-03-13T00:56:07.257Z,89.23
2023-03-13T00:56:57.237Z,88.21
2023-03-13T00:57:47.267Z,87.96
2023-03-13T00:58:37.223Z,87.45
2023-03-13T00:59:27.221Z,87.76
2023-03-13T01:00:17.220Z,88.06
2023-03-13T01:01:07.220Z,88.57
2023-03-13T01:01:57.222Z,89.19
2023-03-13T01:02:47.388Z,89.54
2023-03-13T01:03:37.283Z,89.95
2023-03-13T01:04:27.172Z,89.64
2023-03-13T01:05:17.168Z,90.05
2023-03-13T01:06:07.162Z,89.95
2023-03-13T01:06:57.254Z,89.64
2023-03-13T01:07:47.138Z,90.16
2023-03-13T01:08:37.120Z,90.56
2023-03-13T01:09:27.120Z,90.46
2023-03-13T01:10:17.158Z,90.77
2023-03-13T01:11:07.087Z,90.71
2023-03-13T01:11:57.078Z,90.61
2023-03-13T01:12:47.080Z,90.20
2023-03-13T01:13:37.082Z,89.84
2023-03-13T01:14:27.068Z,91.08
2023-03-13T01:15:17.069Z,91.22
2023-03-13T01:16:07.129Z,91.33
2023-03-13T01:16:57.041Z,91.74
2023-03-13T01:17:47.031Z,92.46
2023-03-13T01:18:37.002Z,92.66
2023-03-13T01:19:27.006Z,92.86
2023-03-13T01:20:17.002Z,92.86
2023-03-13T01:21:06.999Z,92.91
2023-03-13T01:21:56.981Z,92.80
2023-03-13T01:22:46.961Z,93.12
2023-03-13T01:23:36.961Z,93.52
2023-03-13T01:24:26.961Z,93.73
2023-03-13T01:25:16.932Z,93.63
2023-03-13T01:26:06.957Z,93.42
2023-03-13T01:26:56.923Z,93.21
2023-03-13T01:27:46.910Z,93.93
2023-03-13T01:28:36.920Z,94.14
2023-03-13T01:29:26.926Z,92.80
2023-03-13T01:30:16.881Z,91.74
2023-03-13T01:31:06.950Z,91.22
2023-03-13T01:31:56.893Z,91.80
2023-03-13T01:32:46.943Z,92.51
2023-03-13T01:33:36.857Z,92.82
2023-03-13T01:34:26.832Z,92.55
2023-03-13T01:35:16.857Z,92.14
2023-03-13T01:36:06.825Z,92.14
2023-03-13T01:36:56.811Z,91.74
2023-03-13T01:37:46.809Z,91.49
2023-03-13T01:38:36.802Z,91.18
2023-03-13T01:39:26.782Z,91.18
2023-03-13T01:40:16.788Z,90.87
2023-03-13T01:41:06.776Z,90.77
2023-03-13T01:41:56.757Z,90.77
2023-03-13T01:42:46.772Z,90.42
2023-03-13T01:43:36.748Z,90.32
2023-03-13T01:44:26.748Z,90.22
2023-03-13T01:45:16.715Z,90.11
2023-03-13T01:46:06.798Z,90.01
2023-03-13T01:46:56.705Z,90.32
2023-03-13T01:47:48.169Z,90.52
2023-03-13T01:48:36.780Z,90.62
2023-03-13T01:49:26.702Z,90.37
2023-03-13T01:50:16.666Z,90.17
2023-03-13T01:51:06.665Z,90.48
2023-03-13T01:51:56.640Z,90.58
2023-03-13T01:52:46.629Z,90.48
2023-03-13T01:53:36.627Z,90.69
2023-03-13T01:54:26.645Z,90.34
2023-03-13T01:55:16.600Z,90.64
2023-03-13T01:56:06.599Z,90.30
2023-03-13T01:56:56.601Z,89.58
2023-03-13T01:57:46.576Z,89.27
2023-03-13T01:58:36.569Z,88.65
2023-03-13T01:59:26.565Z,89.17
2023-03-13T02:00:16.561Z,89.89
2023-03-13T02:01:06.542Z,89.98
2023-03-13T02:01:56.589Z,90.19
2023-03-13T02:02:46.598Z,90.50
2023-03-13T02:03:36.509Z,91.01
2023-03-13T02:04:26.499Z,89.68
2023-03-13T02:05:16.503Z,90.81
2023-03-13T02:06:06.513Z,91.11
2023-03-13T02:06:56.470Z,91.01
2023-03-13T02:07:46.479Z,91.83
2023-03-13T02:08:36.475Z,92.14
2023-03-13T02:09:26.461Z,93.26
2023-03-13T02:10:16.450Z,93.77
2023-03-13T02:11:06.437Z,94.23
2023-03-13T02:11:56.432Z,95.56
2023-03-13T02:12:46.419Z,96.12
2023-03-13T02:13:36.394Z,96.63
2023-03-13T02:14:26.415Z,97.14
2023-03-13T02:15:16.394Z,97.65
2023-03-13T02:16:06.432Z,98.16
2023-03-13T02:16:56.364Z,98.42
2023-03-13T02:17:46.358Z,98.62
2023-03-13T02:18:36.354Z,98.83
2023-03-13T02:19:26.346Z,99.24
2023-03-13T02:20:16.347Z,99.54
2023-03-13T02:21:06.338Z,99.65
2023-03-13T02:21:56.304Z,99.75
2023-03-13T02:22:46.297Z,99.99
2023-03-13T02:23:36.305Z,99.99
2023-03-13T02:24:26.295Z,99.99
2023-03-13T02:25:16.278Z,99.99
2023-03-13T02:26:06.270Z,99.99
2023-03-13T02:26:56.262Z,99.99
2023-03-13T02:27:46.261Z,99.99
2023-03-13T02:28:36.233Z,99.99
2023-03-13T02:29:26.221Z,99.99
2023-03-13T02:30:16.251Z,99.99
2023-03-13T02:31:06.274Z,99.99
2023-03-13T02:31:56.191Z,99.99
2023-03-13T02:32:46.240Z,99.99
2023-03-13T02:33:36.197Z,99.99
2023-03-13T02:34:26.173Z,99.99
2023-03-13T02:35:16.170Z,99.99
2023-03-13T02:36:06.158Z,99.99
2023-03-13T02:36:56.149Z,99.99
2023-03-13T02:37:46.133Z,99.99
2023-03-13T02:38:36.123Z,99.99
2023-03-13T02:39:26.123Z,99.99
2023-03-13T02:40:16.100Z,99.99
2023-03-13T02:41:06.115Z,99.99
2023-03-13T02:41:56.086Z,99.99
2023-03-13T02:42:46.085Z,99.99
2023-03-13T02:43:36.079Z,99.99
2023-03-13T02:44:26.060Z,99.99
2023-03-13T02:45:16.055Z,99.99
2023-03-13T02:46:06.049Z,99.99
2023-03-13T02:46:56.107Z,99.99
2023-03-13T02:47:46.026Z,99.99
2023-03-13T02:48:36.031Z,99.99
2023-03-13T02:49:26.002Z,99.99
2023-03-13T02:50:15.996Z,99.99
2023-03-13T02:51:06.009Z,99.99
2023-03-13T02:51:55.980Z,99.99
2023-03-13T02:52:45.986Z,99.99
2023-03-13T02:53:35.955Z,99.99
2023-03-13T02:54:25.946Z,99.99
2023-03-13T02:55:15.955Z,99.99
2023-03-13T02:56:05.947Z,99.99
2023-03-13T02:56:55.940Z,99.99
2023-03-13T02:57:45.914Z,99.99
2023-03-13T02:58:44.050Z,99.99
2023-03-13T02:59:26.903Z,99.99
2023-03-13T03:00:15.912Z,99.99
2023-03-13T03:01:05.907Z,99.99
2023-03-13T03:01:55.865Z,99.99
2023-03-13T03:02:45.860Z,99.99
2023-03-13T03:03:35.903Z,99.99
2023-03-13T03:04:25.856Z,99.99
2023-03-13T03:05:15.835Z,99.99
2023-03-13T03:06:05.831Z,99.99
2023-03-13T03:06:55.825Z,99.99
2023-03-13T03:07:45.795Z,99.99
2023-03-13T03:08:35.795Z,99.99
2023-03-13T03:09:25.793Z,99.99
2023-03-13T03:10:15.783Z,99.99
2023-03-13T03:11:05.837Z,99.99
2023-03-13T03:11:55.755Z,99.99
2023-03-13T03:12:45.762Z,99.99
2023-03-13T03:13:35.756Z,99.99
2023-03-13T03:14:25.735Z,99.99
2023-03-13T03:15:15.757Z,99.99
2023-03-13T03:16:05.765Z,99.99
2023-03-13T03:16:55.720Z,99.99
2023-03-13T03:17:45.701Z,99.99
2023-03-13T03:18:35.707Z,99.99
2023-03-13T03:19:25.687Z,99.99
2023-03-13T03:20:15.672Z,99.99
2023-03-13T03:21:05.675Z,99.99
2023-03-13T03:21:55.681Z,99.99
2023-03-13T03:22:45.631Z,99.99
2023-03-13T03:23:35.641Z,99.99
2023-03-13T03:24:25.624Z,99.99
2023-03-13T03:25:15.622Z,99.99
2023-03-13T03:26:05.596Z,99.99
2023-03-13T03:26:55.590Z,99.99
2023-03-13T03:27:45.588Z,99.99
2023-03-13T03:28:35.576Z,99.99
2023-03-13T03:29:25.547Z,99.99
2023-03-13T03:30:15.545Z,99.99
2023-03-13T03:31:05.526Z,99.99
2023-03-13T03:31:55.563Z,99.99
2023-03-13T03:32:45.561Z,99.99
2023-03-13T03:33:35.520Z,99.99
2023-03-13T03:34:25.494Z,99.99
2023-03-13T03:35:15.515Z,99.99
2023-03-13T03:36:05.513Z,99.99
2023-03-13T03:36:55.480Z,99.99
2023-03-13T03:37:45.463Z,99.99
2023-03-13T03:38:35.456Z,99.99
2023-03-13T03:39:25.462Z,99.99
2023-03-13T03:40:15.442Z,99.99
2023-03-13T03:41:05.432Z,99.99
2023-03-13T03:41:55.411Z,99.99
2023-03-13T03:42:45.403Z,99.99
2023-03-13T03:43:35.420Z,99.99
2023-03-13T03:44:25.382Z,99.99
2023-03-13T03:45:15.414Z,99.99
2023-03-13T03:46:05.424Z,99.99
2023-03-13T03:46:55.448Z,99.99
2023-03-13T03:47:45.368Z,99.99
2023-03-13T03:48:35.354Z,99.99
2023-03-13T03:49:25.331Z,99.99
2023-03-13T03:50:15.320Z,99.99
2023-03-13T03:51:05.330Z,99.99
2023-03-13T03:51:55.318Z,99.99
2023-03-13T03:52:45.290Z,99.99
2023-03-13T03:53:35.312Z,99.99
2023-03-13T03:54:25.285Z,99.99
2023-03-13T03:55:15.273Z,99.99
2023-03-13T03:56:05.260Z,99.76
2023-03-13T03:56:55.271Z,99.99
2023-03-13T03:57:45.232Z,99.99
2023-03-13T03:58:35.251Z,99.86
2023-03-13T03:59:25.235Z,99.55
2023-03-13T04:00:15.213Z,99.96
2023-03-13T04:01:05.201Z,99.99
2023-03-13T04:01:55.280Z,99.96
2023-03-13T04:02:45.192Z,99.99
2023-03-13T04:03:35.268Z,99.99
2023-03-13T04:04:25.164Z,99.99
2023-03-13T04:05:15.171Z,99.45
2023-03-13T04:06:05.166Z,99.45
2023-03-13T04:06:55.160Z,98.83
2023-03-13T04:07:45.145Z,98.33
2023-03-13T04:08:35.157Z,97.91
2023-03-13T04:09:25.122Z,97.46
2023-03-13T04:10:15.105Z,97.46
2023-03-13T04:11:05.093Z,97.87
2023-03-13T04:11:55.104Z,97.56
2023-03-13T04:12:45.084Z,97.05
2023-03-13T04:13:35.100Z,96.64
2023-03-13T04:14:25.073Z,96.84
2023-03-13T04:15:15.073Z,96.84
2023-03-13T04:16:05.045Z,96.74
2023-03-13T04:16:55.104Z,96.64
2023-03-13T04:17:45.036Z,97.15
2023-03-13T04:18:35.010Z,95.51
2023-03-13T04:19:25.015Z,95.26
2023-03-13T04:20:14.998Z,95.98
2023-03-13T04:21:04.988Z,95.57
2023-03-13T04:21:55.003Z,95.06
2023-03-13T04:22:44.973Z,95.17
2023-03-13T04:23:34.968Z,94.85
2023-03-13T04:24:24.966Z,94.55
2023-03-13T04:25:14.943Z,94.65
2023-03-13T04:26:04.937Z,94.51
2023-03-13T04:26:54.933Z,94.51
2023-03-13T04:27:44.944Z,94.71
2023-03-13T04:28:34.924Z,94.14
2023-03-13T04:29:24.901Z,93.99
2023-03-13T04:30:17.557Z,93.99
2023-03-13T04:31:04.916Z,94.10
2023-03-13T04:31:54.872Z,93.69
2023-03-13T04:32:44.895Z,93.69
2023-03-13T04:33:34.875Z,93.38
2023-03-13T04:34:24.833Z,92.97
2023-03-13T04:35:14.892Z,94.30
2023-03-13T04:36:04.883Z,93.79
2023-03-13T04:36:54.822Z,92.97
2023-03-13T04:37:44.822Z,92.25
2023-03-13T04:38:34.794Z,92.15
2023-03-13T04:39:24.789Z,92.21
2023-03-13T04:40:14.790Z,92.32
2023-03-13T04:41:04.776Z,92.52
2023-03-13T04:41:54.751Z,92.32
2023-03-13T04:42:44.743Z,92.56
2023-03-13T04:43:34.750Z,92.01
2023-03-13T04:44:24.720Z,92.21
2023-03-13T04:45:14.730Z,92.32
2023-03-13T04:46:04.786Z,91.60
2023-03-13T04:46:54.701Z,91.60
2023-03-13T04:47:44.680Z,91.50
2023-03-13T04:48:34.691Z,91.60
2023-03-13T04:49:24.688Z,91.80
2023-03-13T04:50:14.704Z,91.09
2023-03-13T04:51:04.667Z,90.99
2023-03-13T04:51:54.661Z,91.60
2023-03-13T04:52:44.640Z,91.39
2023-03-13T04:53:34.627Z,90.88
2023-03-13T04:54:24.611Z,91.09
2023-03-13T04:55:14.621Z,91.15
2023-03-13T04:56:04.608Z,90.94
2023-03-13T04:56:54.610Z,90.74
2023-03-13T04:57:44.570Z,90.84
2023-03-13T04:58:34.592Z,91.56
2023-03-13T04:59:24.553Z,91.56
2023-03-13T05:00:14.556Z,91.05
2023-03-13T05:01:04.606Z,91.25
2023-03-13T05:01:54.549Z,91.70
2023-03-13T05:02:44.562Z,92.93
2023-03-13T05:03:34.534Z,93.13
2023-03-13T05:04:24.508Z,93.74
2023-03-13T05:05:14.589Z,94.26
2023-03-13T05:06:04.488Z,94.81
2023-03-13T05:06:54.487Z,94.40
2023-03-13T05:07:44.477Z,95.02
2023-03-13T05:08:34.460Z,95.43
2023-03-13T05:09:24.463Z,95.84
2023-03-13T05:10:14.450Z,95.53
2023-03-13T05:11:04.438Z,95.94
2023-03-13T05:11:55.605Z,96.25
2023-03-13T05:12:44.418Z,95.84
2023-03-13T05:13:34.432Z,95.94
2023-03-13T05:14:24.400Z,96.55
2023-03-13T05:15:14.404Z,96.75
2023-03-13T05:16:04.430Z,96.66
2023-03-13T05:16:54.372Z,96.25
2023-03-13T05:17:44.359Z,96.14
2023-03-13T05:18:34.361Z,95.94
2023-03-13T05:19:24.340Z,95.53
2023-03-13T05:20:14.360Z,96.14
2023-03-13T05:21:04.325Z,96.55
2023-03-13T05:21:54.317Z,96.66
2023-03-13T05:22:44.308Z,96.04
2023-03-13T05:23:34.289Z,95.63
2023-03-13T05:24:24.280Z,95.73
2023-03-13T05:25:14.297Z,95.53
2023-03-13T05:26:04.280Z,96.34
2023-03-13T05:26:54.258Z,96.66
2023-03-13T05:27:44.248Z,96.14
2023-03-13T05:28:34.287Z,96.14
2023-03-13T05:29:24.229Z,96.25
2023-03-13T05:30:14.522Z,96.34
2023-03-13T05:31:04.275Z,96.55
2023-03-13T05:31:54.208Z,95.84
2023-03-13T05:32:44.237Z,95.53
2023-03-13T05:33:34.197Z,96.14
2023-03-13T05:34:24.178Z,95.84
2023-03-13T05:35:14.174Z,96.25
2023-03-13T05:36:04.217Z,95.73
2023-03-13T05:36:54.146Z,95.84
2023-03-13T05:37:44.136Z,95.94
2023-03-13T05:38:34.142Z,96.04
2023-03-13T05:39:24.123Z,95.73
2023-03-13T05:40:14.106Z,96.45
2023-03-13T05:41:04.117Z,96.86
2023-03-13T05:41:54.106Z,97.06
2023-03-13T05:42:44.085Z,96.96
2023-03-13T05:43:34.103Z,97.47
2023-03-13T05:44:24.056Z,97.98
2023-03-13T05:45:14.077Z,97.67
2023-03-13T05:46:04.092Z,97.88
2023-03-13T05:46:54.167Z,98.39
2023-03-13T05:47:44.042Z,98.90
2023-03-13T05:48:34.018Z,99.62
2023-03-13T05:49:24.007Z,99.87
2023-03-13T05:50:14.006Z,99.99
2023-03-13T05:51:04.012Z,99.99
2023-03-13T05:51:53.979Z,99.99
2023-03-13T05:52:43.963Z,99.99
2023-03-13T05:53:33.984Z,99.99
2023-03-13T05:54:23.942Z,99.99
2023-03-13T05:55:13.931Z,99.99
2023-03-13T05:56:03.922Z,99.99
2023-03-13T05:56:53.922Z,99.99
2023-03-13T05:57:43.913Z,99.99
2023-03-13T05:58:33.912Z,99.99
2023-03-13T05:59:23.896Z,99.99
2023-03-13T06:00:13.918Z,99.99
2023-03-13T06:01:03.868Z,99.99
2023-03-13T06:01:53.885Z,99.99
2023-03-13T06:02:43.867Z,99.99
2023-03-13T06:03:33.991Z,99.99
2023-03-13T06:04:23.965Z,99.99
2023-03-13T06:05:13.840Z,99.99
2023-03-13T06:06:03.828Z,99.99
2023-03-13T06:06:53.816Z,99.99
2023-03-13T06:07:43.816Z,99.99
2023-03-13T06:08:33.795Z,99.99
2023-03-13T06:09:23.789Z,99.99
2023-03-13T06:10:13.792Z,99.99
2023-03-13T06:11:03.759Z,99.99
2023-03-13T06:11:53.772Z,99.99
2023-03-13T06:12:43.753Z,99.99
2023-03-13T06:13:33.742Z,99.99
2023-03-13T06:14:23.727Z,99.99
2023-03-13T06:15:13.716Z,99.99
2023-03-13T06:16:03.737Z,99.99
2023-03-13T06:16:53.711Z,99.99
2023-03-13T06:17:43.701Z,99.99
2023-03-13T06:18:33.674Z,99.99
2023-03-13T06:19:23.673Z,99.99
2023-03-13T06:20:13.676Z,99.99
2023-03-13T06:21:03.662Z,99.99
2023-03-13T06:21:53.645Z,99.36
2023-03-13T06:22:43.639Z,99.31
2023-03-13T06:23:33.634Z,99.21
2023-03-13T06:24:23.601Z,98.80
2023-03-13T06:25:13.610Z,99.41
2023-03-13T06:26:03.594Z,99.21
2023-03-13T06:26:53.572Z,99.31
2023-03-13T06:27:43.592Z,98.90
2023-03-13T06:28:33.581Z,99.21
2023-03-13T06:29:23.570Z,99.52
2023-03-13T06:30:13.543Z,99.11
2023-03-13T06:31:03.577Z,99.01
2023-03-13T06:31:53.703Z,99.01
2023-03-13T06:32:43.638Z,99.11
2023-03-13T06:33:33.588Z,99.31
2023-03-13T06:34:23.512Z,98.90
2023-03-13T06:35:13.486Z,99.11
2023-03-13T06:36:03.619Z,99.11
2023-03-13T06:36:53.483Z,99.11
2023-03-13T06:37:43.493Z,99.01
2023-03-13T06:38:33.453Z,99.11
2023-03-13T06:39:23.461Z,99.31
2023-03-13T06:40:13.448Z,99.41
2023-03-13T06:41:03.431Z,99.41
2023-03-13T06:41:53.429Z,99.11
2023-03-13T06:42:43.423Z,99.31
2023-03-13T06:43:33.392Z,99.11
2023-03-13T06:44:23.390Z,98.90
2023-03-13T06:45:13.398Z,99.01
2023-03-13T06:46:03.384Z,98.90
2023-03-13T06:46:53.434Z,98.80
2023-03-13T06:47:43.370Z,98.80
2023-03-13T06:48:33.354Z,98.80
2023-03-13T06:49:23.341Z,99.01
2023-03-13T06:50:13.348Z,98.80
2023-03-13T06:51:03.322Z,98.70
2023-03-13T06:51:53.314Z,98.90
2023-03-13T06:52:44.343Z,98.60
2023-03-13T06:53:33.290Z,98.08
2023-03-13T06:54:23.282Z,98.39
2023-03-13T06:55:13.568Z,98.55
2023-03-13T06:56:03.261Z,97.94
2023-03-13T06:56:53.259Z,97.94
2023-03-13T06:57:43.257Z,97.94
2023-03-13T06:58:33.275Z,98.04
2023-03-13T06:59:23.230Z,96.71
2023-03-13T07:00:13.238Z,96.51
2023-03-13T07:01:03.290Z,96.87
2023-03-13T07:01:53.191Z,96.97
2023-03-13T07:02:43.190Z,96.87
2023-03-13T07:03:33.201Z,96.56
2023-03-13T07:04:23.280Z,96.26
2023-03-13T07:05:13.160Z,95.75
2023-03-13T07:06:03.151Z,95.85
2023-03-13T07:06:53.151Z,95.85
2023-03-13T07:07:43.144Z,95.95
2023-03-13T07:08:33.187Z,96.15
2023-03-13T07:09:23.122Z,96.15
2023-03-13T07:10:13.102Z,96.05
2023-03-13T07:11:03.103Z,96.26
2023-03-13T07:11:53.083Z,95.75
2023-03-13T07:12:43.095Z,95.85
2023-03-13T07:13:33.088Z,96.56
2023-03-13T07:14:23.074Z,96.56
2023-03-13T07:15:13.068Z,96.56
2023-03-13T07:16:03.087Z,96.87
2023-03-13T07:16:53.172Z,96.77
2023-03-13T07:17:43.142Z,96.77
2023-03-13T07:18:33.025Z,96.87
2023-03-13T07:19:23.016Z,96.77
2023-03-13T07:20:13.125Z,96.87
2023-03-13T07:21:03.028Z,96.87
2023-03-13T07:21:52.994Z,96.97
2023-03-13T07:22:42.982Z,97.17
2023-03-13T07:23:32.963Z,96.97
2023-03-13T07:24:23.053Z,96.97
2023-03-13T07:25:12.937Z,96.97
2023-03-13T07:26:02.971Z,96.87
2023-03-13T07:27:04.888Z,96.97
2023-03-13T07:27:43.945Z,97.08
2023-03-13T07:28:34.410Z,97.28
2023-03-13T07:29:22.919Z,97.28
2023-03-13T07:30:12.901Z,97.17
2023-03-13T07:31:02.895Z,97.08
2023-03-13T07:31:52.973Z,97.08
2023-03-13T07:32:42.920Z,96.67
2023-03-13T07:33:32.856Z,96.87
2023-03-13T07:34:22.849Z,97.08
2023-03-13T07:35:12.842Z,97.08
2023-03-13T07:36:02.901Z,97.08
2023-03-13T07:36:52.812Z,97.28
2023-03-13T07:37:42.807Z,97.28
2023-03-13T07:38:32.802Z,97.49
2023-03-13T07:39:22.808Z,97.38
2023-03-13T07:40:12.791Z,97.28
2023-03-13T07:41:02.780Z,97.38
2023-03-13T07:41:52.772Z,97.17
2023-03-13T07:42:42.802Z,96.87
2023-03-13T07:43:32.778Z,96.87
2023-03-13T07:44:22.732Z,96.21
2023-03-13T07:45:13.400Z,96.01
2023-03-13T07:46:02.778Z,95.90
2023-03-13T07:46:52.720Z,95.90
2023-03-13T07:47:42.714Z,96.42
2023-03-13T07:48:32.689Z,96.51
2023-03-13T07:49:22.688Z,96.21
2023-03-13T07:50:12.814Z,96.21
2023-03-13T07:51:02.672Z,96.21
2023-03-13T07:51:52.665Z,96.31
2023-03-13T07:52:42.639Z,96.42
2023-03-13T07:53:32.747Z,96.31
2023-03-13T07:54:22.611Z,96.62
2023-03-13T07:55:12.628Z,96.31
2023-03-13T07:56:02.607Z,96.01
2023-03-13T07:56:52.595Z,95.90
2023-03-13T07:57:42.590Z,96.21
2023-03-13T07:58:32.576Z,96.31
2023-03-13T07:59:22.610Z,96.01
2023-03-13T08:00:12.554Z,96.01
2023-03-13T08:01:02.584Z,95.96
2023-03-13T08:01:52.657Z,96.06
2023-03-13T08:02:42.613Z,95.56
2023-03-13T08:03:32.561Z,95.76
2023-03-13T08:04:22.509Z,95.76
2023-03-13T08:05:12.516Z,95.86
2023-03-13T08:06:02.543Z,95.35
2023-03-13T08:06:52.517Z,95.15
2023-03-13T08:07:42.480Z,94.84
2023-03-13T08:08:32.468Z,94.59
2023-03-13T08:09:22.466Z,93.98
2023-03-13T08:10:12.438Z,94.29
2023-03-13T08:11:02.429Z,93.77
2023-03-13T08:11:52.430Z,93.88
2023-03-13T08:12:42.420Z,93.98
2023-03-13T08:13:32.417Z,93.73
2023-03-13T08:14:22.408Z,93.43
2023-03-13T08:15:12.394Z,93.63
2023-03-13T08:16:02.400Z,93.32
2023-03-13T08:16:52.432Z,92.50
2023-03-13T08:17:42.375Z,92.20
2023-03-13T08:18:32.353Z,92.36
2023-03-13T08:19:22.344Z,92.57
2023-03-13T08:20:12.338Z,92.16
2023-03-13T08:21:02.316Z,91.96
2023-03-13T08:21:52.329Z,92.46
2023-03-13T08:22:42.304Z,92.77
2023-03-13T08:23:32.284Z,93.07
2023-03-13T08:24:22.321Z,92.46
2023-03-13T08:25:12.290Z,92.16
2023-03-13T08:26:02.289Z,92.26
2023-03-13T08:26:52.261Z,91.96
2023-03-13T08:27:42.261Z,91.55
2023-03-13T08:28:32.241Z,91.85
2023-03-13T08:29:22.236Z,91.75
2023-03-13T08:30:12.240Z,91.96
2023-03-13T08:31:02.265Z,91.24
2023-03-13T08:31:52.257Z,90.18
2023-03-13T08:32:42.238Z,90.69
2023-03-13T08:33:32.194Z,90.38
2023-03-13T08:34:22.186Z,90.59
2023-03-13T08:35:12.170Z,90.99
2023-03-13T08:36:02.219Z,91.50
2023-03-13T08:36:52.161Z,91.71
2023-03-13T08:37:42.151Z,91.71
2023-03-13T08:38:32.121Z,90.48
2023-03-13T08:39:22.122Z,90.44
2023-03-13T08:40:12.124Z,90.34
2023-03-13T08:41:02.119Z,90.64
2023-03-13T08:41:52.096Z,90.64
2023-03-13T08:42:42.081Z,91.05
2023-03-13T08:43:32.073Z,90.79
2023-03-13T08:44:22.061Z,90.55
2023-03-13T08:45:12.057Z,90.24
2023-03-13T08:46:02.092Z,90.75
2023-03-13T08:46:52.052Z,90.95
2023-03-13T08:47:42.027Z,90.75
2023-03-13T08:48:32.024Z,90.75
2023-03-13T08:49:22.012Z,90.55
2023-03-13T08:50:12.030Z,91.05
2023-03-13T08:51:02.006Z,90.34
2023-03-13T08:51:51.980Z,89.53
2023-03-13T08:52:41.976Z,89.94
2023-03-13T08:53:31.960Z,90.24
2023-03-13T08:54:21.960Z,89.94
2023-03-13T08:55:11.959Z,89.01
2023-03-13T08:56:01.959Z,89.22
2023-03-13T08:56:51.926Z,89.12
2023-03-13T08:57:41.915Z,89.22
2023-03-13T08:58:31.908Z,87.45
2023-03-13T08:59:21.935Z,87.85
2023-03-13T09:00:11.882Z,87.85
2023-03-13T09:01:01.877Z,88.57
2023-03-13T09:01:51.856Z,87.75
2023-03-13T09:02:41.936Z,88.06
2023-03-13T09:03:31.916Z,88.06
2023-03-13T09:04:21.850Z,88.36
2023-03-13T09:05:11.835Z,87.30
2023-03-13T09:06:01.835Z,87.00
2023-03-13T09:06:51.805Z,87.71
2023-03-13T09:07:41.815Z,86.59
2023-03-13T09:08:31.868Z,86.59
2023-03-13T09:09:23.293Z,86.90
2023-03-13T09:10:11.783Z,87.30
2023-03-13T09:11:01.799Z,88.02
2023-03-13T09:11:51.762Z,87.51
2023-03-13T09:12:41.779Z,86.69
2023-03-13T09:13:31.739Z,86.90
2023-03-13T09:14:21.734Z,86.39
2023-03-13T09:15:11.730Z,86.69
2023-03-13T09:16:01.808Z,87.00
2023-03-13T09:16:51.733Z,86.80
2023-03-13T09:17:41.691Z,86.55
2023-03-13T09:18:31.731Z,86.76
2023-03-13T09:19:21.688Z,87.26
2023-03-13T09:20:11.674Z,86.96
2023-03-13T09:21:01.686Z,86.65
2023-03-13T09:21:51.634Z,87.06
2023-03-13T09:22:41.649Z,86.86
2023-03-13T09:23:31.664Z,85.74
2023-03-13T09:24:21.635Z,85.43
2023-03-13T09:25:11.594Z,85.64
2023-03-13T09:26:01.605Z,85.64
2023-03-13T09:27:00.592Z,85.09
2023-03-13T09:27:42.593Z,85.09
2023-03-13T09:28:31.562Z,85.39
2023-03-13T09:29:21.572Z,85.39
2023-03-13T09:30:11.581Z,86.10
2023-03-13T09:31:01.573Z,83.67
2023-03-13T09:31:51.535Z,84.07
2023-03-13T09:32:41.530Z,83.76
2023-03-13T09:33:31.511Z,83.93
2023-03-13T09:34:21.522Z,84.03
2023-03-13T09:35:11.492Z,84.84
2023-03-13T09:36:01.546Z,84.64
2023-03-13T09:36:51.467Z,85.15
2023-03-13T09:37:41.461Z,84.64
2023-03-13T09:38:31.478Z,85.55
2023-03-13T09:39:21.497Z,85.15
2023-03-13T09:40:11.440Z,83.99
2023-03-13T09:41:06.260Z,84.50
2023-03-13T09:41:52.422Z,83.48
2023-03-13T09:42:41.433Z,83.08
2023-03-13T09:43:31.407Z,83.28
2023-03-13T09:44:21.385Z,84.77
2023-03-13T09:45:11.410Z,83.95
2023-03-13T09:46:01.411Z,82.84
2023-03-13T09:46:51.423Z,82.94
2023-03-13T09:47:41.348Z,82.73
2023-03-13T09:48:31.338Z,83.75
2023-03-13T09:49:21.372Z,83.75
2023-03-13T09:50:11.317Z,83.65
2023-03-13T09:51:01.346Z,83.10
2023-03-13T09:51:51.304Z,82.70
2023-03-13T09:52:41.306Z,82.29
2023-03-13T09:53:31.290Z,80.87
2023-03-13T09:54:21.307Z,81.78
2023-03-13T09:55:11.298Z,81.27
2023-03-13T09:56:01.262Z,81.78
2023-03-13T09:56:51.256Z,82.29
2023-03-13T09:57:41.250Z,81.78
2023-03-13T09:58:31.250Z,81.54
2023-03-13T09:59:21.210Z,82.05
2023-03-13T10:00:11.240Z,81.34
2023-03-13T10:01:01.215Z,80.12
2023-03-13T10:01:51.213Z,79.38
2023-03-13T10:02:41.177Z,80.29
2023-03-13T10:03:31.195Z,81.30
2023-03-13T10:04:21.261Z,81.30
2023-03-13T10:05:11.166Z,80.25
2023-03-13T10:06:01.146Z,79.44
2023-03-13T10:06:51.139Z,79.24
2023-03-13T10:07:41.127Z,79.44
2023-03-13T10:08:31.122Z,80.15
2023-03-13T10:09:21.130Z,78.39
2023-03-13T10:10:11.109Z,78.19
2023-03-13T10:11:01.076Z,78.39
2023-03-13T10:11:51.086Z,79.00
2023-03-13T10:12:41.076Z,77.58
2023-03-13T10:13:31.066Z,77.78
2023-03-13T10:14:21.087Z,79.00
2023-03-13T10:15:11.059Z,79.10
2023-03-13T10:16:01.111Z,77.64
2023-03-13T10:16:51.060Z,78.66
2023-03-13T10:17:41.014Z,78.66
2023-03-13T10:18:31.029Z,78.75
2023-03-13T10:19:21.005Z,77.84
2023-03-13T10:20:10.995Z,76.83
2023-03-13T10:21:00.994Z,76.32
2023-03-13T10:21:50.990Z,77.75
2023-03-13T10:22:40.955Z,77.64
2023-03-13T10:23:30.965Z,78.75
2023-03-13T10:24:20.948Z,76.90
2023-03-13T10:25:10.963Z,76.09
2023-03-13T10:26:00.918Z,75.58
2023-03-13T10:26:50.911Z,76.29
2023-03-13T10:27:40.894Z,77.00
2023-03-13T10:28:30.905Z,78.01
2023-03-13T10:29:20.878Z,77.50
2023-03-13T10:30:10.864Z,77.71
2023-03-13T10:31:00.880Z,76.59
2023-03-13T10:31:50.858Z,75.79
2023-03-13T10:32:40.925Z,75.58
2023-03-13T10:33:30.851Z,75.18
2023-03-13T10:34:20.839Z,75.79
2023-03-13T10:35:10.814Z,76.59
2023-03-13T10:36:00.863Z,77.40
2023-03-13T10:36:50.841Z,76.76
2023-03-13T10:37:40.808Z,76.86
2023-03-13T10:38:30.778Z,75.85
2023-03-13T10:39:20.778Z,73.28
2023-03-13T10:40:10.766Z,73.59
2023-03-13T10:41:00.744Z,73.79
2023-03-13T10:41:50.755Z,74.30
2023-03-13T10:42:40.750Z,74.10
2023-03-13T10:43:30.753Z,72.85